KLPC/LPC METAR and TAF weather

Enter ICAO airport designator
Station Type Date Time Source
KLPC METAR 2019/06/26 19:56 UTC NOAA

KLPC 261956Z AUTO 28012KT 10SM CLR 20/13 A3000 RMK AO2 SLP160 T02000128


Station Type Date Time Source
KLPC Decoded METAR 2019/06/26 19:56 UTC NOAA

Lompoc, Lompoc Airport, CA, United States (KLPC) 34-40N 120-28W
Jun 26, 2019 - 03:56 PM EDT / 2019.06.26 1956 UTC
Wind: from the W (280 degrees) at 14 MPH (12 KT):0
Visibility: 10 mile(s):0
Sky conditions: clear
Temperature: 68.0 F (20.0 C)
Dew Point: 55.0 F (12.8 C)
Relative Humidity: 63%
Pressure (altimeter): 30 in. Hg (1015 hPa)
ob: KLPC 261956Z AUTO 28012KT 10SM CLR 20/13 A3000 RMK AO2 SLP160 T02000128
cycle: 20

Station Type Date Time Source
KLPC TAF UTC NOAA

Error!

Example: see airport list